sensor_id;sensor_type;location;lat;lon;timestamp;temperature;humidity
44763;DHT22;30483;49.576;6.036;2024-01-15T04:00:28;13.40;98.80
44763;DHT22;30483;49.576;6.036;2024-01-15T04:02:54;13.40;98.80
44763;DHT22;30483;49.576;6.036;2024-01-15T04:05:19;13.40;98.80
44763;DHT22;30483;49.576;6.036;2024-01-15T04:07:46;13.40;98.80
44763;DHT22;30483;49.576;6.036;2024-01-15T04:10:11;13.40;98.90
44763;DHT22;30483;49.576;6.036;2024-01-15T04:12:37;13.40;98.90
44763;DHT22;30483;49.576;6.036;2024-01-15T04:15:03;13.40;98.90
44763;DHT22;30483;49.576;6.036;2024-01-15T04:17:29;13.40;98.90
44763;DHT22;30483;49.576;6.036;2024-01-15T04:19:54;13.40;98.90
44763;DHT22;30483;49.576;6.036;2024-01-15T04:22:20;13.40;98.90
44763;DHT22;30483;49.576;6.036;2024-01-15T04:24:46;13.40;98.90
44763;DHT22;30483;49.576;6.036;2024-01-15T04:27:11;13.40;98.90
44763;DHT22;30483;49.576;6.036;2024-01-15T04:29:40;13.40;98.90
44763;DHT22;30483;49.576;6.036;2024-01-15T04:32:06;13.40;98.90
44763;DHT22;30483;49.576;6.036;2024-01-15T04:34:31;13.40;98.90
44763;DHT22;30483;49.576;6.036;2024-01-15T04:36:57;13.40;99.00
44763;DHT22;30483;49.576;6.036;2024-01-15T04:39:22;13.40;99.00
44763;DHT22;30483;49.576;6.036;2024-01-15T04:41:48;13.40;99.00
44763;DHT22;30483;49.576;6.036;2024-01-15T04:44:14;13.40;99.00
44763;DHT22;30483;49.576;6.036;2024-01-15T04:46:39;13.40;99.00
44763;DHT22;30483;49.576;6.036;2024-01-15T04:49:05;13.40;99.00
44763;DHT22;30483;49.576;6.036;2024-01-15T04:51:30;13.40;99.00
44763;DHT22;30483;49.576;6.036;2024-01-15T04:53:56;13.40;99.00
44763;DHT22;30483;49.576;6.036;2024-01-15T04:56:22;13.40;99.00
44763;DHT22;30483;49.576;6.036;2024-01-15T04:58:47;13.50;99.00
44763;DHT22;30483;49.576;6.036;2024-01-15T05:01:13;13.50;99.00
44763;DHT22;30483;49.576;6.036;2024-01-15T05:03:42;13.50;99.00
44763;DHT22;30483;49.576;6.036;2024-01-15T05:06:08;13.50;99.00
44763;DHT22;30483;49.576;6.036;2024-01-15T05:08:34;13.50;98.90
44763;DHT22;30483;49.576;6.036;2024-01-15T05:10:59;13.50;99.00
44763;DHT22;30483;49.576;6.036;2024-01-15T05:13:25;13.50;98.90
44763;DHT22;30483;49.576;6.036;2024-01-15T05:15:51;13.50;98.90
44763;DHT22;30483;49.576;6.036;2024-01-15T05:18:17;13.50;98.90
44763;DHT22;30483;49.576;6.036;2024-01-15T05:20:42;13.50;98.90
44763;DHT22;30483;49.576;6.036;2024-01-15T05:23:08;13.50;98.90
44763;DHT22;30483;49.576;6.036;2024-01-15T05:25:34;13.50;98.90
44763;DHT22;30483;49.576;6.036;2024-01-15T05:27:59;13.50;98.90
44763;DHT22;30483;49.576;6.036;2024-01-15T05:30:25;13.50;98.90
44763;DHT22;30483;49.576;6.036;2024-01-15T05:32:51;13.50;98.90
44763;DHT22;30483;49.576;6.036;2024-01-15T05:35:21;13.50;98.90
44763;DHT22;30483;49.576;6.036;2024-01-15T05:37:47;13.50;98.90
44763;DHT22;30483;49.576;6.036;2024-01-15T05:40:13;13.50;98.90
44763;DHT22;30483;49.576;6.036;2024-01-15T05:42:39;13.50;98.90
44763;DHT22;30483;49.576;6.036;2024-01-15T05:45:06;13.50;98.90
44763;DHT22;30483;49.576;6.036;2024-01-15T05:47:32;13.50;98.90
44763;DHT22;30483;49.576;6.036;2024-01-15T05:49:58;13.60;99.90
44763;DHT22;30483;49.576;6.036;2024-01-15T05:52:23;12.80;97.10
44763;DHT22;30483;49.576;6.036;2024-01-15T05:54:49;12.00;97.90
44763;DHT22;30483;49.576;6.036;2024-01-15T05:57:15;12.00;98.30
44763;DHT22;30483;49.576;6.036;2024-01-15T05:59:42;12.20;98.40
44763;DHT22;30483;49.576;6.036;2024-01-15T06:02:08;12.40;98.40
44763;DHT22;30483;49.576;6.036;2024-01-15T06:04:33;12.50;98.40
44763;DHT22;30483;49.576;6.036;2024-01-15T06:06:59;12.70;98.40
44763;DHT22;30483;49.576;6.036;2024-01-15T06:09:25;12.80;98.20
44763;DHT22;30483;49.576;6.036;2024-01-15T06:11:50;12.80;98.20
44763;DHT22;30483;49.576;6.036;2024-01-15T06:14:16;12.90;98.10
44763;DHT22;30483;49.576;6.036;2024-01-15T06:16:41;13.00;98.10
44763;DHT22;30483;49.576;6.036;2024-01-15T06:19:07;13.00;98.30
44763;DHT22;30483;49.576;6.036;2024-01-15T06:21:32;13.10;98.20
44763;DHT22;30483;49.576;6.036;2024-01-15T06:23:58;13.20;98.10
44763;DHT22;30483;49.576;6.036;2024-01-15T06:26:24;13.20;98.20
44763;DHT22;30483;49.576;6.036;2024-01-15T06:28:50;13.40;99.90
44763;DHT22;30483;49.576;6.036;2024-01-15T06:31:16;12.10;96.90
44763;DHT22;30483;49.576;6.036;2024-01-15T06:33:41;11.80;97.50
44763;DHT22;30483;49.576;6.036;2024-01-15T06:36:07;11.90;97.60
44763;DHT22;30483;49.576;6.036;2024-01-15T06:38:33;12.00;97.70
44763;DHT22;30483;49.576;6.036;2024-01-15T06:40:58;12.20;97.70
44763;DHT22;30483;49.576;6.036;2024-01-15T06:43:24;12.20;97.60
44763;DHT22;30483;49.576;6.036;2024-01-15T06:45:49;12.10;99.30
44763;DHT22;30483;49.576;6.036;2024-01-15T06:48:15;12.10;99.90
44763;DHT22;30483;49.576;6.036;2024-01-15T06:50:42;12.20;99.60
44763;DHT22;30483;49.576;6.036;2024-01-15T06:53:08;12.30;99.90
44763;DHT22;30483;49.576;6.036;2024-01-15T06:55:34;12.30;99.90
44763;DHT22;30483;49.576;6.036;2024-01-15T06:57:59;12.40;99.90
44763;DHT22;30483;49.576;6.036;2024-01-15T07:00:25;12.50;99.90
44763;DHT22;30483;49.576;6.036;2024-01-15T07:02:51;12.50;99.90
44763;DHT22;30483;49.576;6.036;2024-01-15T07:05:17;12.60;99.90
44763;DHT22;30483;49.576;6.036;2024-01-15T07:07:43;12.70;99.90
44763;DHT22;30483;49.576;6.036;2024-01-15T07:10:08;12.70;99.90
44763;DHT22;30483;49.576;6.036;2024-01-15T07:12:34;12.70;99.90
44763;DHT22;30483;49.576;6.036;2024-01-15T07:15:00;12.70;99.90
44763;DHT22;30483;49.576;6.036;2024-01-15T07:17:26;12.80;99.90
44763;DHT22;30483;49.576;6.036;2024-01-15T07:19:51;12.80;99.90
44763;DHT22;30483;49.576;6.036;2024-01-15T07:22:17;12.90;99.90
44763;DHT22;30483;49.576;6.036;2024-01-15T07:24:43;12.90;99.90
44763;DHT22;30483;49.576;6.036;2024-01-15T07:27:09;12.90;99.90
44763;DHT22;30483;49.576;6.036;2024-01-15T07:29:35;12.90;99.90
44763;DHT22;30483;49.576;6.036;2024-01-15T07:32:04;12.90;99.90
44763;DHT22;30483;49.576;6.036;2024-01-15T07:34:30;13.00;99.90
44763;DHT22;30483;49.576;6.036;2024-01-15T07:36:57;13.00;99.90
44763;DHT22;30483;49.576;6.036;2024-01-15T07:39:23;13.00;99.90
44763;DHT22;30483;49.576;6.036;2024-01-15T07:41:50;13.00;99.90
44763;DHT22;30483;49.576;6.036;2024-01-15T07:44:16;13.00;99.90
44763;DHT22;30483;49.576;6.036;2024-01-15T07:46:46;13.00;99.90
44763;DHT22;30483;49.576;6.036;2024-01-15T07:49:12;13.00;99.90
44763;DHT22;30483;49.576;6.036;2024-01-15T07:51:37;13.00;99.90
44763;DHT22;30483;49.576;6.036;2024-01-15T07:54:03;13.00;99.90
44763;DHT22;30483;49.576;6.036;2024-01-15T07:56:29;13.00;99.90
44763;DHT22;30483;49.576;6.036;2024-01-15T07:58:54;13.00;99.90
44763;DHT22;30483;49.576;6.036;2024-01-15T08:01:21;13.00;99.90
44763;DHT22;30483;49.576;6.036;2024-01-15T08:03:47;13.00;99.90
44763;DHT22;30483;49.576;6.036;2024-01-15T08:06:13;13.00;99.90
44763;DHT22;30483;49.576;6.036;2024-01-15T08:08:39;13.00;99.90
44763;DHT22;30483;49.576;6.036;2024-01-15T08:11:04;13.00;99.90
44763;DHT22;30483;49.576;6.036;2024-01-15T08:13:30;13.00;99.90
44763;DHT22;30483;49.576;6.036;2024-01-15T08:15:56;13.10;99.90
44763;DHT22;30483;49.576;6.036;2024-01-15T08:18:21;13.10;99.90
44763;DHT22;30483;49.576;6.036;2024-01-15T08:20:47;13.00;99.90
44763;DHT22;30483;49.576;6.036;2024-01-15T08:23:13;13.10;99.90
44763;DHT22;30483;49.576;6.036;2024-01-15T08:25:39;13.00;99.90
44763;DHT22;30483;49.576;6.036;2024-01-15T08:28:04;13.10;99.90
44763;DHT22;30483;49.576;6.036;2024-01-15T08:30:30;13.10;99.90
44763;DHT22;30483;49.576;6.036;2024-01-15T08:32:56;13.10;99.90
44763;DHT22;30483;49.576;6.036;2024-01-15T08:35:22;13.00;99.90
44763;DHT22;30483;49.576;6.036;2024-01-15T08:37:51;13.00;99.90
44763;DHT22;30483;49.576;6.036;2024-01-15T08:40:18;13.10;99.90
44763;DHT22;30483;49.576;6.036;2024-01-15T08:42:43;13.00;99.90
44763;DHT22;30483;49.576;6.036;2024-01-15T08:45:09;13.10;99.90
44763;DHT22;30483;49.576;6.036;2024-01-15T08:47:36;13.00;99.90
44763;DHT22;30483;49.576;6.036;2024-01-15T08:50:02;13.00;99.90
44763;DHT22;30483;49.576;6.036;2024-01-15T08:52:28;13.00;99.90
44763;DHT22;30483;49.576;6.036;2024-01-15T08:54:55;13.10;99.90
44763;DHT22;30483;49.576;6.036;2024-01-15T08:57:20;13.00;99.90
44763;DHT22;30483;49.576;6.036;2024-01-15T08:59:47;13.00;99.90
44763;DHT22;30483;49.576;6.036;2024-01-15T09:02:13;13.10;99.90
44763;DHT22;30483;49.576;6.036;2024-01-15T09:04:39;13.10;99.90
44763;DHT22;30483;49.576;6.036;2024-01-15T09:07:04;13.10;99.90
44763;DHT22;30483;49.576;6.036;2024-01-15T09:09:30;13.10;99.90
44763;DHT22;30483;49.576;6.036;2024-01-15T09:11:56;13.10;99.90
44763;DHT22;30483;49.576;6.036;2024-01-15T09:14:21;13.10;99.90
44763;DHT22;30483;49.576;6.036;2024-01-15T09:16:49;13.10;99.90
44763;DHT22;30483;49.576;6.036;2024-01-15T09:19:15;13.10;99.90
44763;DHT22;30483;49.576;6.036;2024-01-15T09:21:40;13.10;99.90
44763;DHT22;30483;49.576;6.036;2024-01-15T09:24:06;13.10;99.90
44763;DHT22;30483;49.576;6.036;2024-01-15T09:26:32;13.10;99.90
44763;DHT22;30483;49.576;6.036;2024-01-15T09:28:57;13.10;99.90
44763;DHT22;30483;49.576;6.036;2024-01-15T09:31:23;13.10;99.90
44763;DHT22;30483;49.576;6.036;2024-01-15T09:33:49;13.10;99.90
44763;DHT22;30483;49.576;6.036;2024-01-15T09:36:17;13.10;99.90
44763;DHT22;30483;49.576;6.036;2024-01-15T09:38:43;13.10;99.90
44763;DHT22;30483;49.576;6.036;2024-01-15T09:41:09;13.10;99.90
44763;DHT22;30483;49.576;6.036;2024-01-15T09:43:36;13.10;99.90
44763;DHT22;30483;49.576;6.036;2024-01-15T09:46:03;13.10;99.90
44763;DHT22;30483;49.576;6.036;2024-01-15T09:48:29;13.10;99.90
44763;DHT22;30483;49.576;6.036;2024-01-15T09:50:55;13.10;99.90
44763;DHT22;30483;49.576;6.036;2024-01-15T09:53:21;13.10;99.90
44763;DHT22;30483;49.576;6.036;2024-01-15T09:55:47;13.10;99.90
44763;DHT22;30483;49.576;6.036;2024-01-15T09:58:15;13.10;99.90
44763;DHT22;30483;49.576;6.036;2024-01-15T10:00:41;13.10;99.90
44763;DHT22;30483;49.576;6.036;2024-01-15T10:03:09;13.20;99.90
44763;DHT22;30483;49.576;6.036;2024-01-15T10:05:38;13.10;99.90
44763;DHT22;30483;49.576;6.036;2024-01-15T10:08:04;13.10;99.90
44763;DHT22;30483;49.576;6.036;2024-01-15T10:10:30;13.10;99.90
44763;DHT22;30483;49.576;6.036;2024-01-15T10:12:58;13.10;99.90
44763;DHT22;30483;49.576;6.036;2024-01-15T10:15:27;13.10;99.90
44763;DHT22;30483;49.576;6.036;2024-01-15T10:17:53;13.10;99.90
44763;DHT22;30483;49.576;6.036;2024-01-15T10:20:20;13.10;99.90
44763;DHT22;30483;49.576;6.036;2024-01-15T10:22:48;13.10;99.90
44763;DHT22;30483;49.576;6.036;2024-01-15T10:25:14;13.10;99.90
44763;DHT22;30483;49.576;6.036;2024-01-15T10:27:43;13.10;99.90
44763;DHT22;30483;49.576;6.036;2024-01-15T10:30:10;13.10;99.90
44763;DHT22;30483;49.576;6.036;2024-01-15T10:32:35;13.10;99.90
44763;DHT22;30483;49.576;6.036;2024-01-15T10:35:01;13.10;99.90
44763;DHT22;30483;49.576;6.036;2024-01-15T10:37:28;13.10;99.90
44763;DHT22;30483;49.576;6.036;2024-01-15T10:39:53;13.10;99.90
44763;DHT22;30483;49.576;6.036;2024-01-15T10:42:19;13.10;99.90
44763;DHT22;30483;49.576;6.036;2024-01-15T10:44:45;13.10;99.90
44763;DHT22;30483;49.576;6.036;2024-01-15T10:47:13;13.10;99.90
44763;DHT22;30483;49.576;6.036;2024-01-15T10:49:40;13.10;99.90
44763;DHT22;30483;49.576;6.036;2024-01-15T10:52:06;13.10;99.90
44763;DHT22;30483;49.576;6.036;2024-01-15T10:54:32;13.10;99.90
44763;DHT22;30483;49.576;6.036;2024-01-15T10:56:59;13.10;99.90
44763;DHT22;30483;49.576;6.036;2024-01-15T10:59:25;13.10;99.90
44763;DHT22;30483;49.576;6.036;2024-01-15T11:01:51;13.10;99.90
44763;DHT22;30483;49.576;6.036;2024-01-15T11:04:21;13.10;99.90
44763;DHT22;30483;49.576;6.036;2024-01-15T11:06:52;13.10;99.90
44763;DHT22;30483;49.576;6.036;2024-01-15T11:09:19;13.10;99.90
44763;DHT22;30483;49.576;6.036;2024-01-15T11:11:45;13.10;99.90
44763;DHT22;30483;49.576;6.036;2024-01-15T11:17:04;13.10;99.90
44763;DHT22;30483;49.576;6.036;2024-01-15T11:22:09;13.10;99.90
44763;DHT22;30483;49.576;6.036;2024-01-15T11:24:38;13.10;99.90
44763;DHT22;30483;49.576;6.036;2024-01-15T11:27:05;13.10;99.90
44763;DHT22;30483;49.576;6.036;2024-01-15T11:29:33;13.10;99.90
44763;DHT22;30483;49.576;6.036;2024-01-15T11:32:04;13.10;99.90
44763;DHT22;30483;49.576;6.036;2024-01-15T11:34:53;13.10;99.90
44763;DHT22;30483;49.576;6.036;2024-01-15T11:37:20;13.10;99.90
44763;DHT22;30483;49.576;6.036;2024-01-15T11:39:46;13.10;99.90
44763;DHT22;30483;49.576;6.036;2024-01-15T11:42:13;13.10;99.90
44763;DHT22;30483;49.576;6.036;2024-01-15T11:44:39;13.10;99.90
44763;DHT22;30483;49.576;6.036;2024-01-15T11:47:07;13.10;99.90
44763;DHT22;30483;49.576;6.036;2024-01-15T11:49:58;13.10;99.90
44763;DHT22;30483;49.576;6.036;2024-01-15T11:52:26;13.10;99.90
44763;DHT22;30483;49.576;6.036;2024-01-15T11:55:01;13.10;99.90
44763;DHT22;30483;49.576;6.036;2024-01-15T11:57:45;13.00;99.90
44763;DHT22;30483;49.576;6.036;2024-01-15T12:00:12;13.00;99.90
44763;DHT22;30483;49.576;6.036;2024-01-15T12:02:45;13.10;99.90
44763;DHT22;30483;49.576;6.036;2024-01-15T12:05:13;13.10;99.90
44763;DHT22;30483;49.576;6.036;2024-01-15T12:07:43;13.10;99.90
44763;DHT22;30483;49.576;6.036;2024-01-15T12:10:12;13.00;99.90
44763;DHT22;30483;49.576;6.036;2024-01-15T12:13:04;13.00;99.90
44763;DHT22;30483;49.576;6.036;2024-01-15T12:15:31;13.10;99.90
44763;DHT22;30483;49.576;6.036;2024-01-15T12:17:58;13.00;99.90
44763;DHT22;30483;49.576;6.036;2024-01-15T12:20:26;13.00;99.90
44763;DHT22;30483;49.576;6.036;2024-01-15T12:22:52;13.10;99.90
44763;DHT22;30483;49.576;6.036;2024-01-15T12:25:18;13.00;99.90
44763;DHT22;30483;49.576;6.036;2024-01-15T12:27:43;13.00;99.90
44763;DHT22;30483;49.576;6.036;2024-01-15T12:30:13;13.00;99.90
44763;DHT22;30483;49.576;6.036;2024-01-15T12:32:40;13.00;99.90
44763;DHT22;30483;49.576;6.036;2024-01-15T12:35:07;13.00;99.90
44763;DHT22;30483;49.576;6.036;2024-01-15T12:37:36;13.00;99.90
44763;DHT22;30483;49.576;6.036;2024-01-15T12:40:02;13.00;99.90
44763;DHT22;30483;49.576;6.036;2024-01-15T12:42:28;13.10;99.90
44763;DHT22;30483;49.576;6.036;2024-01-15T12:44:56;13.10;99.90
44763;DHT22;30483;49.576;6.036;2024-01-15T12:47:22;13.10;99.90
44763;DHT22;30483;49.576;6.036;2024-01-15T12:49:48;13.10;99.90
44763;DHT22;30483;49.576;6.036;2024-01-15T12:52:19;13.10;99.90
44763;DHT22;30483;49.576;6.036;2024-01-15T12:54:48;13.10;99.90
44763;DHT22;30483;49.576;6.036;2024-01-15T12:57:14;13.10;99.90
44763;DHT22;30483;49.576;6.036;2024-01-15T12:59:39;13.00;99.90
44763;DHT22;30483;49.576;6.036;2024-01-15T13:02:05;13.00;99.90
44763;DHT22;30483;49.576;6.036;2024-01-15T13:04:31;13.10;99.90
44763;DHT22;30483;49.576;6.036;2024-01-15T13:06:57;13.10;99.90
44763;DHT22;30483;49.576;6.036;2024-01-15T13:09:22;13.10;99.90
44763;DHT22;30483;49.576;6.036;2024-01-15T13:11:48;13.10;99.90
44763;DHT22;30483;49.576;6.036;2024-01-15T13:14:14;13.10;99.90
44763;DHT22;30483;49.576;6.036;2024-01-15T13:16:42;13.10;99.90
44763;DHT22;30483;49.576;6.036;2024-01-15T13:19:09;13.10;99.90
44763;DHT22;30483;49.576;6.036;2024-01-15T13:21:37;13.10;99.90
44763;DHT22;30483;49.576;6.036;2024-01-15T13:24:02;13.00;99.90
44763;DHT22;30483;49.576;6.036;2024-01-15T13:26:33;13.10;99.90
44763;DHT22;30483;49.576;6.036;2024-01-15T13:29:00;13.10;99.90
44763;DHT22;30483;49.576;6.036;2024-01-15T13:31:30;13.10;99.90
44763;DHT22;30483;49.576;6.036;2024-01-15T13:33:55;13.10;99.90
44763;DHT22;30483;49.576;6.036;2024-01-15T13:36:22;13.10;99.90
44763;DHT22;30483;49.576;6.036;2024-01-15T13:38:52;13.10;99.90
44763;DHT22;30483;49.576;6.036;2024-01-15T13:41:19;13.10;99.90
44763;DHT22;30483;49.576;6.036;2024-01-15T13:43:49;13.10;99.90
44763;DHT22;30483;49.576;6.036;2024-01-15T13:46:15;13.10;99.90
44763;DHT22;30483;49.576;6.036;2024-01-15T13:48:42;13.10;99.90
44763;DHT22;30483;49.576;6.036;2024-01-15T13:51:08;13.10;99.90
44763;DHT22;30483;49.576;6.036;2024-01-15T13:53:34;13.10;99.90
44763;DHT22;30483;49.576;6.036;2024-01-15T13:55:59;13.10;99.90
44763;DHT22;30483;49.576;6.036;2024-01-15T13:58:25;13.10;99.90
44763;DHT22;30483;49.576;6.036;2024-01-15T14:00:51;13.10;99.90
44763;DHT22;30483;49.576;6.036;2024-01-15T14:03:17;13.10;99.90
44763;DHT22;30483;49.576;6.036;2024-01-15T14:05:44;13.10;99.90
44763;DHT22;30483;49.576;6.036;2024-01-15T14:08:10;13.10;99.90
44763;DHT22;30483;49.576;6.036;2024-01-15T14:10:36;13.10;99.90
44763;DHT22;30483;49.576;6.036;2024-01-15T14:13:02;13.10;99.90
44763;DHT22;30483;49.576;6.036;2024-01-15T14:15:28;13.10;99.90
44763;DHT22;30483;49.576;6.036;2024-01-15T14:17:54;13.10;99.90
44763;DHT22;30483;49.576;6.036;2024-01-15T14:20:20;13.10;99.90
44763;DHT22;30483;49.576;6.036;2024-01-15T14:22:45;13.00;99.90
44763;DHT22;30483;49.576;6.036;2024-01-15T14:25:11;13.10;99.90
44763;DHT22;30483;49.576;6.036;2024-01-15T14:27:36;13.10;99.90
44763;DHT22;30483;49.576;6.036;2024-01-15T14:30:02;13.00;99.90
44763;DHT22;30483;49.576;6.036;2024-01-15T14:32:28;13.00;99.90
44763;DHT22;30483;49.576;6.036;2024-01-15T14:34:54;13.00;99.90
44763;DHT22;30483;49.576;6.036;2024-01-15T14:37:22;13.00;99.90
44763;DHT22;30483;49.576;6.036;2024-01-15T14:39:47;13.00;99.90
44763;DHT22;30483;49.576;6.036;2024-01-15T14:42:14;13.00;99.90
44763;DHT22;30483;49.576;6.036;2024-01-15T14:44:39;12.70;99.90
44763;DHT22;30483;49.576;6.036;2024-01-15T14:47:06;12.40;99.90
44763;DHT22;30483;49.576;6.036;2024-01-15T14:49:33;12.30;99.90
44763;DHT22;30483;49.576;6.036;2024-01-15T14:51:59;12.40;99.90
44763;DHT22;30483;49.576;6.036;2024-01-15T14:54:25;12.50;99.90
44763;DHT22;30483;49.576;6.036;2024-01-15T14:56:51;12.50;99.90
44763;DHT22;30483;49.576;6.036;2024-01-15T14:59:17;12.60;99.90
44763;DHT22;30483;49.576;6.036;2024-01-15T15:01:42;12.70;99.90
44763;DHT22;30483;49.576;6.036;2024-01-15T15:04:08;12.80;99.90
44763;DHT22;30483;49.576;6.036;2024-01-15T15:06:36;12.80;99.90
44763;DHT22;30483;49.576;6.036;2024-01-15T15:09:02;12.90;99.90
44763;DHT22;30483;49.576;6.036;2024-01-15T15:11:28;12.90;99.90
44763;DHT22;30483;49.576;6.036;2024-01-15T15:13:53;12.90;99.90
44763;DHT22;30483;49.576;6.036;2024-01-15T15:16:19;13.00;99.90
44763;DHT22;30483;49.576;6.036;2024-01-15T15:18:44;13.00;99.90
44763;DHT22;30483;49.576;6.036;2024-01-15T15:21:12;13.00;99.90
44763;DHT22;30483;49.576;6.036;2024-01-15T15:23:37;13.00;99.90
44763;DHT22;30483;49.576;6.036;2024-01-15T15:26:05;13.00;99.90
44763;DHT22;30483;49.576;6.036;2024-01-15T15:28:31;13.10;99.90
44763;DHT22;30483;49.576;6.036;2024-01-15T15:30:57;13.10;99.90
44763;DHT22;30483;49.576;6.036;2024-01-15T15:33:22;13.10;99.90
44763;DHT22;30483;49.576;6.036;2024-01-15T15:35:48;13.10;99.90
44763;DHT22;30483;49.576;6.036;2024-01-15T15:38:17;13.10;99.90
44763;DHT22;30483;49.576;6.036;2024-01-15T15:40:42;13.10;99.90
44763;DHT22;30483;49.576;6.036;2024-01-15T15:43:08;13.10;99.90
44763;DHT22;30483;49.576;6.036;2024-01-15T15:45:34;12.90;99.90
44763;DHT22;30483;49.576;6.036;2024-01-15T15:47:59;12.80;99.90
44763;DHT22;30483;49.576;6.036;2024-01-15T15:50:25;12.70;99.90
44763;DHT22;30483;49.576;6.036;2024-01-15T15:52:51;12.80;99.90
44763;DHT22;30483;49.576;6.036;2024-01-15T15:55:16;12.60;99.90
44763;DHT22;30483;49.576;6.036;2024-01-15T15:57:42;12.30;99.90
44763;DHT22;30483;49.576;6.036;2024-01-15T16:00:08;12.30;99.90
44763;DHT22;30483;49.576;6.036;2024-01-15T16:02:34;12.30;99.90
44763;DHT22;30483;49.576;6.036;2024-01-15T16:05:00;12.40;99.90
44763;DHT22;30483;49.576;6.036;2024-01-15T16:07:26;12.50;99.90
44763;DHT22;30483;49.576;6.036;2024-01-15T16:09:57;12.60;99.90
44763;DHT22;30483;49.576;6.036;2024-01-15T16:12:22;12.60;99.90
44763;DHT22;30483;49.576;6.036;2024-01-15T16:14:48;12.70;99.90
44763;DHT22;30483;49.576;6.036;2024-01-15T16:17:14;12.80;99.90
44763;DHT22;30483;49.576;6.036;2024-01-15T16:19:39;12.80;99.90
44763;DHT22;30483;49.576;6.036;2024-01-15T16:22:05;12.80;99.90
44763;DHT22;30483;49.576;6.036;2024-01-15T16:24:31;12.90;99.90
44763;DHT22;30483;49.576;6.036;2024-01-15T16:26:56;12.90;99.90
44763;DHT22;30483;49.576;6.036;2024-01-15T16:29:22;13.00;99.90
44763;DHT22;30483;49.576;6.036;2024-01-15T16:31:48;12.60;99.90
44763;DHT22;30483;49.576;6.036;2024-01-15T16:34:14;12.20;99.90
44763;DHT22;30483;49.576;6.036;2024-01-15T16:36:39;12.30;99.90
44763;DHT22;30483;49.576;6.036;2024-01-15T16:39:05;12.40;99.90
44763;DHT22;30483;49.576;6.036;2024-01-15T16:41:31;12.50;99.90
44763;DHT22;30483;49.576;6.036;2024-01-15T16:43:57;12.50;99.90
44763;DHT22;30483;49.576;6.036;2024-01-15T16:46:22;12.60;99.90
44763;DHT22;30483;49.576;6.036;2024-01-15T16:48:48;12.60;99.90
44763;DHT22;30483;49.576;6.036;2024-01-15T16:51:13;12.70;99.90
44763;DHT22;30483;49.576;6.036;2024-01-15T16:53:39;12.70;99.90
44763;DHT22;30483;49.576;6.036;2024-01-15T16:56:08;12.70;99.90
44763;DHT22;30483;49.576;6.036;2024-01-15T16:58:33;12.80;99.90
44763;DHT22;30483;49.576;6.036;2024-01-15T17:00:59;12.80;99.90
44763;DHT22;30483;49.576;6.036;2024-01-15T17:03:25;12.90;99.90
44763;DHT22;30483;49.576;6.036;2024-01-15T17:05:51;12.90;99.90
44763;DHT22;30483;49.576;6.036;2024-01-15T17:08:16;12.90;99.90
44763;DHT22;30483;49.576;6.036;2024-01-15T17:10:43;12.90;99.90
44763;DHT22;30483;49.576;6.036;2024-01-15T17:13:08;12.90;99.90
44763;DHT22;30483;49.576;6.036;2024-01-15T17:15:34;12.90;99.90
44763;DHT22;30483;49.576;6.036;2024-01-15T17:18:00;13.00;99.90
44763;DHT22;30483;49.576;6.036;2024-01-15T17:20:25;13.00;99.90
44763;DHT22;30483;49.576;6.036;2024-01-15T17:22:51;13.00;99.90
44763;DHT22;30483;49.576;6.036;2024-01-15T17:25:17;13.00;99.90
44763;DHT22;30483;49.576;6.036;2024-01-15T17:27:42;13.00;99.90
44763;DHT22;30483;49.576;6.036;2024-01-15T17:30:10;13.00;99.90
44763;DHT22;30483;49.576;6.036;2024-01-15T17:32:37;13.00;99.90
44763;DHT22;30483;49.576;6.036;2024-01-15T17:35:02;13.00;99.90
44763;DHT22;30483;49.576;6.036;2024-01-15T17:37:29;13.00;99.90
44763;DHT22;30483;49.576;6.036;2024-01-15T17:39:54;13.00;99.90
44763;DHT22;30483;49.576;6.036;2024-01-15T17:42:20;13.10;99.90
44763;DHT22;30483;49.576;6.036;2024-01-15T17:44:46;13.00;99.90
44763;DHT22;30483;49.576;6.036;2024-01-15T17:47:12;13.00;99.90
44763;DHT22;30483;49.576;6.036;2024-01-15T17:49:38;13.00;99.90
44763;DHT22;30483;49.576;6.036;2024-01-15T17:52:04;13.00;99.90
44763;DHT22;30483;49.576;6.036;2024-01-15T17:54:30;13.00;99.90
44763;DHT22;30483;49.576;6.036;2024-01-15T17:56:56;13.00;99.90
44763;DHT22;30483;49.576;6.036;2024-01-15T17:59:22;13.00;99.90
44763;DHT22;30483;49.576;6.036;2024-01-15T18:01:48;13.10;99.90
44763;DHT22;30483;49.576;6.036;2024-01-15T18:04:13;13.10;99.90
44763;DHT22;30483;49.576;6.036;2024-01-15T18:06:41;13.10;99.90
44763;DHT22;30483;49.576;6.036;2024-01-15T18:09:06;13.10;99.90
44763;DHT22;30483;49.576;6.036;2024-01-15T18:11:32;13.10;99.90
44763;DHT22;30483;49.576;6.036;2024-01-15T18:13:58;13.10;99.90
44763;DHT22;30483;49.576;6.036;2024-01-15T18:16:24;13.10;99.90
44763;DHT22;30483;49.576;6.036;2024-01-15T18:18:51;13.10;99.90
44763;DHT22;30483;49.576;6.036;2024-01-15T18:21:18;13.10;99.90
44763;DHT22;30483;49.576;6.036;2024-01-15T18:23:44;13.10;99.90
44763;DHT22;30483;49.576;6.036;2024-01-15T18:26:09;13.10;99.90
44763;DHT22;30483;49.576;6.036;2024-01-15T18:28:35;13.10;99.90
44763;DHT22;30483;49.576;6.036;2024-01-15T18:31:01;13.10;99.90
44763;DHT22;30483;49.576;6.036;2024-01-15T18:33:26;13.10;99.90
44763;DHT22;30483;49.576;6.036;2024-01-15T18:35:52;13.10;99.90
44763;DHT22;30483;49.576;6.036;2024-01-15T18:38:17;12.80;99.90
44763;DHT22;30483;49.576;6.036;2024-01-15T18:40:43;12.30;99.90
44763;DHT22;30483;49.576;6.036;2024-01-15T18:43:08;12.50;99.90
44763;DHT22;30483;49.576;6.036;2024-01-15T18:45:35;12.80;99.90
44763;DHT22;30483;49.576;6.036;2024-01-15T18:48:01;13.10;99.90
44763;DHT22;30483;49.576;6.036;2024-01-15T18:50:27;13.20;99.90
44763;DHT22;30483;49.576;6.036;2024-01-15T18:52:54;13.20;99.90
44763;DHT22;30483;49.576;6.036;2024-01-15T18:55:20;13.30;99.90
44763;DHT22;30483;49.576;6.036;2024-01-15T18:57:47;13.30;99.90
44763;DHT22;30483;49.576;6.036;2024-01-15T19:00:14;13.30;99.90
44763;DHT22;30483;49.576;6.036;2024-01-15T19:02:39;13.40;99.90
44763;DHT22;30483;49.576;6.036;2024-01-15T19:05:05;13.40;99.90
44763;DHT22;30483;49.576;6.036;2024-01-15T19:07:31;13.50;99.90
44763;DHT22;30483;49.576;6.036;2024-01-15T19:09:59;13.50;99.90
44763;DHT22;30483;49.576;6.036;2024-01-15T19:12:25;13.50;99.90
44763;DHT22;30483;49.576;6.036;2024-01-15T19:14:50;13.50;99.90
44763;DHT22;30483;49.576;6.036;2024-01-15T19:17:17;13.60;99.90
44763;DHT22;30483;49.576;6.036;2024-01-15T19:19:43;13.60;99.90
44763;DHT22;30483;49.576;6.036;2024-01-15T19:22:08;13.60;99.90
44763;DHT22;30483;49.576;6.036;2024-01-15T19:24:36;13.60;99.90
44763;DHT22;30483;49.576;6.036;2024-01-15T19:27:02;13.70;99.90
44763;DHT22;30483;49.576;6.036;2024-01-15T19:29:27;13.70;99.90